createdAt,value
2022-12-14T00:01:37.326Z,7.00
2022-12-14T00:04:04.425Z,6.97
2022-12-14T00:06:32.706Z,6.90
2022-12-14T00:09:02.274Z,7.20
2022-12-14T00:11:29.232Z,6.70
2022-12-14T00:14:00.862Z,7.50
2022-12-14T00:16:30.057Z,7.17
2022-12-14T00:18:58.656Z,5.73
2022-12-14T00:21:26.109Z,11.83
2022-12-14T00:23:54.570Z,6.97
2022-12-14T00:26:24.259Z,6.83
2022-12-14T00:28:52.867Z,6.67
2022-12-14T00:31:21.177Z,7.27
2022-12-14T00:33:48.765Z,5.83
2022-12-14T00:36:15.624Z,7.13
2022-12-14T00:38:43.080Z,6.80
2022-12-14T00:41:10.712Z,5.77
2022-12-14T00:43:38.010Z,5.47
2022-12-14T00:46:05.371Z,9.03
2022-12-14T00:48:33.106Z,5.63
2022-12-14T00:51:00.311Z,5.60
2022-12-14T00:53:26.995Z,6.47
2022-12-14T00:55:53.807Z,4.70
2022-12-14T00:58:22.654Z,6.03
2022-12-14T01:01:02.369Z,6.43
2022-12-14T01:03:30.080Z,6.57
2022-12-14T01:05:57.223Z,5.97
2022-12-14T01:08:24.512Z,5.83
2022-12-14T01:10:51.885Z,4.53
2022-12-14T01:13:18.985Z,5.17
2022-12-14T01:15:45.794Z,6.13
2022-12-14T01:18:13.289Z,5.17
2022-12-14T01:20:39.884Z,6.53
2022-12-14T01:23:06.702Z,5.27
2022-12-14T01:25:33.712Z,5.00
2022-12-14T01:28:00.389Z,6.30
2022-12-14T01:30:27.157Z,4.80
2022-12-14T01:32:53.947Z,5.13
2022-12-14T01:35:20.544Z,4.87
2022-12-14T01:37:49.124Z,5.37
2022-12-14T01:40:16.570Z,3.80
2022-12-14T01:42:43.214Z,3.47
2022-12-14T01:45:22.208Z,3.53
2022-12-14T01:48:01.979Z,4.67
2022-12-14T01:50:37.857Z,3.73
2022-12-14T01:53:30.785Z,3.40
2022-12-14T01:55:57.890Z,3.65
2022-12-14T01:58:26.700Z,3.00
2022-12-14T02:00:55.931Z,5.13
2022-12-14T02:03:30.401Z,2.73
2022-12-14T02:06:04.398Z,3.00
2022-12-14T02:08:32.399Z,4.10
2022-12-14T02:10:59.267Z,3.23
2022-12-14T02:13:31.482Z,3.73
2022-12-14T02:15:58.746Z,4.82
2022-12-14T02:18:28.362Z,4.30
2022-12-14T02:21:17.207Z,5.85
2022-12-14T02:23:46.632Z,4.63
2022-12-14T02:26:27.357Z,4.88
2022-12-14T02:29:18.931Z,3.13
2022-12-14T02:32:19.625Z,3.47
2022-12-14T02:35:07.161Z,6.00
2022-12-14T02:37:49.379Z,3.17
2022-12-14T02:40:34.250Z,3.17
2022-12-14T02:43:13.129Z,5.35
2022-12-14T02:46:15.769Z,3.53
2022-12-14T02:48:57.300Z,3.75
2022-12-14T02:51:45.559Z,4.50
2022-12-14T02:54:32.799Z,3.83
2022-12-14T02:57:22.140Z,3.97
2022-12-14T02:59:51.692Z,5.07
2022-12-14T03:02:19.071Z,3.90
2022-12-14T03:04:50.045Z,4.45
2022-12-14T03:07:42.002Z,5.40
2022-12-14T03:10:21.552Z,3.97
2022-12-14T03:12:56.923Z,4.50
2022-12-14T03:15:28.136Z,5.65
2022-12-14T03:18:00.311Z,3.72
2022-12-14T03:20:32.328Z,4.43
2022-12-14T03:23:09.199Z,3.33
2022-12-14T03:25:44.568Z,4.93
2022-12-14T03:28:26.656Z,2.75
2022-12-14T03:31:02.657Z,3.75
2022-12-14T03:33:32.268Z,5.18
2022-12-14T03:36:06.717Z,3.47
2022-12-14T03:38:37.869Z,2.45
2022-12-14T03:41:15.576Z,1.83
2022-12-14T03:43:49.769Z,2.83
2022-12-14T03:46:37.454Z,2.07
2022-12-14T03:49:21.779Z,3.67
2022-12-14T03:51:58.407Z,6.90
2022-12-14T03:54:51.479Z,3.28
2022-12-14T03:57:45.880Z,4.95
2022-12-14T04:00:16.561Z,3.38
2022-12-14T04:03:15.885Z,2.33
2022-12-14T04:05:49.118Z,2.05
2022-12-14T04:08:31.768Z,2.22
2022-12-14T04:11:22.174Z,1.52
2022-12-14T04:14:16.851Z,2.73
2022-12-14T04:17:05.637Z,2.88
2022-12-14T04:19:43.494Z,1.90
2022-12-14T04:22:15.059Z,3.37
2022-12-14T04:25:07.543Z,2.13
2022-12-14T04:27:39.900Z,3.33
2022-12-14T04:30:09.339Z,2.55
2022-12-14T04:32:42.202Z,1.73
2022-12-14T04:35:15.277Z,2.08
2022-12-14T04:40:26.234Z,1.15
2022-12-14T04:42:59.160Z,2.47
2022-12-14T04:45:35.246Z,1.35
2022-12-14T04:48:18.506Z,1.95
2022-12-14T04:53:19.473Z,4.13
2022-12-14T04:55:49.359Z,2.67
2022-12-14T04:58:24.641Z,2.28
2022-12-14T05:00:57.454Z,2.17
2022-12-14T05:03:34.831Z,3.22
2022-12-14T05:06:18.030Z,3.00
2022-12-14T05:08:50.534Z,3.63
2022-12-14T05:11:52.460Z,0.88
2022-12-14T05:14:32.038Z,2.80
2022-12-14T05:17:02.319Z,1.85
2022-12-14T05:22:03.458Z,3.22
2022-12-14T05:24:30.120Z,6.15
2022-12-14T05:26:56.763Z,3.00
2022-12-14T05:29:23.785Z,4.45
2022-12-14T05:31:51.622Z,3.30
2022-12-14T05:34:18.537Z,2.55
2022-12-14T05:36:45.342Z,5.63
2022-12-14T05:39:11.943Z,1.85
2022-12-14T05:41:38.563Z,4.88
2022-12-14T05:44:05.412Z,3.17
2022-12-14T05:46:32.075Z,2.50
2022-12-14T05:48:58.756Z,2.37
2022-12-14T05:51:26.035Z,3.40
2022-12-14T05:53:52.641Z,2.10
2022-12-14T05:56:19.949Z,3.50
2022-12-14T05:58:50.318Z,3.50
2022-12-14T06:01:19.326Z,2.03
2022-12-14T06:03:47.086Z,3.75
2022-12-14T06:06:15.202Z,2.20
2022-12-14T06:08:45.412Z,2.58
2022-12-14T06:11:14.601Z,6.00
2022-12-14T06:13:42.223Z,2.55
2022-12-14T06:16:14.321Z,4.17
2022-12-14T06:18:43.208Z,4.15
2022-12-14T06:21:09.916Z,5.65
2022-12-14T06:23:36.674Z,3.47
2022-12-14T06:26:03.613Z,2.92
2022-12-14T06:28:30.326Z,3.93
2022-12-14T06:30:57.158Z,2.55
2022-12-14T06:33:24.295Z,1.43
2022-12-14T06:35:51.031Z,5.43
2022-12-14T06:38:18.023Z,2.33
2022-12-14T06:40:45.104Z,4.53
2022-12-14T06:43:11.876Z,4.73
2022-12-14T06:45:38.864Z,3.45
2022-12-14T06:48:06.363Z,3.55
2022-12-14T06:50:33.102Z,2.47
2022-12-14T06:52:59.708Z,1.27
2022-12-14T06:55:26.992Z,1.60
2022-12-14T06:57:54.977Z,5.13
2022-12-14T07:00:24.044Z,4.82
2022-12-14T07:02:53.098Z,3.00
2022-12-14T07:05:20.007Z,1.15
2022-12-14T07:07:46.925Z,2.20
2022-12-14T07:10:15.972Z,1.17
2022-12-14T07:12:42.884Z,8.80
2022-12-14T07:15:22.578Z,2.55
2022-12-14T07:17:51.674Z,1.25
2022-12-14T07:20:18.780Z,1.92
2022-12-14T07:22:49.305Z,9.75
2022-12-14T07:25:16.345Z,2.60
2022-12-14T07:27:42.958Z,4.75
2022-12-14T07:30:10.245Z,6.68
2022-12-14T07:32:37.613Z,2.95
2022-12-14T07:35:04.447Z,1.15
2022-12-14T07:37:31.102Z,3.50
2022-12-14T07:39:57.902Z,4.40
2022-12-14T07:42:24.517Z,3.78
2022-12-14T07:44:51.583Z,1.80
2022-12-14T07:47:18.324Z,6.05
2022-12-14T07:49:44.987Z,3.45
2022-12-14T07:52:11.756Z,2.30
2022-12-14T07:54:38.554Z,5.82
2022-12-14T07:57:05.151Z,6.03
2022-12-14T07:59:31.868Z,1.73
2022-12-14T08:01:58.968Z,9.13
2022-12-14T08:04:25.836Z,2.60
2022-12-14T08:06:52.636Z,5.53
2022-12-14T08:09:20.340Z,12.38
2022-12-14T08:11:47.296Z,3.47
2022-12-14T08:14:19.900Z,2.90
2022-12-14T08:16:48.085Z,2.72
2022-12-14T08:19:15.469Z,3.80
2022-12-14T08:21:42.387Z,6.15
2022-12-14T08:24:11.977Z,6.43
2022-12-14T08:26:39.403Z,3.85
2022-12-14T08:29:06.645Z,4.73
2022-12-14T08:31:34.216Z,3.38
2022-12-14T08:34:01.795Z,1.63
2022-12-14T08:36:31.640Z,2.40
2022-12-14T08:39:07.322Z,6.50
2022-12-14T08:41:34.521Z,5.90
2022-12-14T08:44:02.650Z,3.25
2022-12-14T08:46:31.418Z,2.47
2022-12-14T08:48:58.331Z,4.25
2022-12-14T08:51:26.809Z,2.85
2022-12-14T08:53:54.270Z,3.83
2022-12-14T08:56:23.988Z,4.75
2022-12-14T08:58:50.697Z,3.28
2022-12-14T09:01:21.104Z,3.20
2022-12-14T09:03:48.562Z,5.47
2022-12-14T09:06:18.355Z,4.70
2022-12-14T09:08:47.094Z,4.47
2022-12-14T09:11:19.165Z,3.90
2022-12-14T09:13:46.874Z,2.67
2022-12-14T09:16:19.382Z,2.03
2022-12-14T09:18:47.845Z,2.55
2022-12-14T09:21:15.013Z,4.03
2022-12-14T09:23:42.356Z,7.23
2022-12-14T09:26:13.681Z,4.50
2022-12-14T09:28:43.063Z,3.83
2022-12-14T09:31:14.872Z,7.67
2022-12-14T09:33:42.038Z,6.03
2022-12-14T09:36:15.481Z,26.50
2022-12-14T09:38:50.596Z,3.90
2022-12-14T09:41:27.217Z,6.10
2022-12-14T09:44:18.717Z,2.70
2022-12-14T09:46:58.713Z,4.83
2022-12-14T09:49:27.998Z,2.83
2022-12-14T09:51:59.445Z,3.80
2022-12-14T09:54:33.327Z,5.33
2022-12-14T09:57:04.589Z,3.83
2022-12-14T09:59:34.015Z,6.70
2022-12-14T10:02:33.777Z,4.03
2022-12-14T10:05:31.936Z,2.87
2022-12-14T10:08:03.069Z,4.00
2022-12-14T10:11:11.593Z,1.87
2022-12-14T10:13:51.020Z,1.20
2022-12-14T10:17:06.092Z,4.67
2022-12-14T10:19:52.376Z,2.30
2022-12-14T10:22:23.034Z,3.07
2022-12-14T10:25:04.396Z,4.03
2022-12-14T10:27:53.880Z,6.17
2022-12-14T10:30:21.495Z,6.83
2022-12-14T10:32:54.777Z,5.03
2022-12-14T10:35:47.945Z,4.63
2022-12-14T10:38:42.100Z,5.18
2022-12-14T10:41:28.375Z,1.83
2022-12-14T10:43:59.858Z,3.87
2022-12-14T10:46:45.240Z,5.03
2022-12-14T10:49:14.896Z,3.67
2022-12-14T10:51:57.366Z,2.93
2022-12-14T10:54:34.478Z,5.32
2022-12-14T10:57:02.244Z,6.13
2022-12-14T10:59:41.445Z,6.83
2022-12-14T11:02:19.894Z,4.77
2022-12-14T11:04:46.623Z,14.88
2022-12-14T11:07:16.001Z,11.57
2022-12-14T11:09:43.960Z,4.30
2022-12-14T11:12:13.411Z,5.90
2022-12-14T11:14:54.173Z,5.67
2022-12-14T11:17:35.629Z,23.10
2022-12-14T11:20:13.062Z,24.25
2022-12-14T11:22:45.421Z,20.07
2022-12-14T11:25:36.049Z,23.40
2022-12-14T11:28:32.737Z,11.73
2022-12-14T11:31:10.896Z,14.93
2022-12-14T11:33:43.524Z,7.40
2022-12-14T11:36:23.092Z,5.47
2022-12-14T11:39:01.344Z,15.40
2022-12-14T11:41:33.627Z,12.23
2022-12-14T11:44:16.847Z,9.45
2022-12-14T11:49:41.681Z,6.27
2022-12-14T11:52:32.119Z,4.00
2022-12-14T11:55:01.811Z,9.53
2022-12-14T11:57:32.319Z,15.13
2022-12-14T12:00:06.761Z,7.13
2022-12-14T12:02:40.106Z,4.23
2022-12-14T12:05:16.063Z,3.27
2022-12-14T12:07:53.369Z,3.20
2022-12-14T12:10:37.280Z,2.80
2022-12-14T12:13:07.381Z,4.80
2022-12-14T12:15:41.031Z,9.10
2022-12-14T12:18:16.710Z,2.93
2022-12-14T12:20:50.026Z,3.30
2022-12-14T12:23:23.073Z,8.00
2022-12-14T12:28:26.705Z,6.43
2022-12-14T12:30:59.375Z,10.10
2022-12-14T12:33:31.674Z,6.07
2022-12-14T12:36:04.475Z,7.30
2022-12-14T12:38:49.858Z,5.40
2022-12-14T12:41:29.750Z,4.37
2022-12-14T12:44:12.191Z,4.90
2022-12-14T12:47:22.469Z,5.47
2022-12-14T12:49:34.124Z,6.73
2022-12-14T12:52:05.914Z,9.97
2022-12-14T12:54:39.156Z,7.53
2022-12-14T12:57:09.935Z,7.00
2022-12-14T12:59:51.949Z,4.00
2022-12-14T13:02:29.638Z,4.17
2022-12-14T13:05:06.952Z,8.43
2022-12-14T13:07:51.368Z,4.83
2022-12-14T13:10:30.382Z,2.53
2022-12-14T13:13:17.353Z,3.53
2022-12-14T13:15:51.332Z,3.47
2022-12-14T13:18:49.144Z,3.87
2022-12-14T13:21:38.436Z,7.77
2022-12-14T13:24:06.969Z,2.35
2022-12-14T13:26:58.737Z,3.33
2022-12-14T13:29:44.408Z,5.17
2022-12-14T13:32:37.137Z,5.87
2022-12-14T13:35:51.659Z,2.38
2022-12-14T13:41:00.136Z,5.07
2022-12-14T13:43:49.004Z,4.93
2022-12-14T13:46:23.173Z,7.43
2022-12-14T13:48:53.312Z,6.40
2022-12-14T13:51:38.070Z,13.67
2022-12-14T13:54:07.819Z,9.13
2022-12-14T13:56:38.395Z,8.60
2022-12-14T13:59:33.228Z,8.07
2022-12-14T14:02:01.635Z,5.73
2022-12-14T14:04:36.707Z,4.70
2022-12-14T14:07:25.207Z,5.53
2022-12-14T14:10:02.715Z,6.27
2022-12-14T14:12:41.721Z,6.13
2022-12-14T14:15:08.480Z,2.90
2022-12-14T14:17:45.733Z,4.80
2022-12-14T14:20:34.405Z,4.20
2022-12-14T14:23:16.265Z,6.60
2022-12-14T14:25:49.301Z,5.97
2022-12-14T14:30:53.099Z,12.00
2022-12-14T14:33:46.591Z,5.83
2022-12-14T14:36:37.422Z,6.20
2022-12-14T14:39:24.548Z,5.83
2022-12-14T14:41:55.147Z,9.73
2022-12-14T14:44:28.810Z,5.07
2022-12-14T14:46:56.703Z,4.27
2022-12-14T14:49:31.527Z,7.37
2022-12-14T14:53:04.244Z,5.53
2022-12-14T14:55:53.297Z,6.47
2022-12-14T14:58:22.499Z,5.77
2022-12-14T15:01:10.306Z,7.40
2022-12-14T15:03:45.261Z,6.27
2022-12-14T15:06:18.572Z,7.90
2022-12-14T15:08:50.499Z,5.63
2022-12-14T15:11:22.952Z,5.73
2022-12-14T15:14:11.611Z,3.55
2022-12-14T15:16:43.608Z,4.77
2022-12-14T15:20:02.531Z,3.58
2022-12-14T15:22:37.263Z,6.93
2022-12-14T15:25:04.388Z,9.67
2022-12-14T15:27:36.723Z,7.20
2022-12-14T15:30:16.155Z,6.13
2022-12-14T15:32:57.205Z,4.23
2022-12-14T15:35:27.446Z,6.67
2022-12-14T15:38:00.270Z,5.83
2022-12-14T15:43:01.363Z,7.70
2022-12-14T15:45:31.493Z,10.27
2022-12-14T15:48:14.171Z,6.83
2022-12-14T15:50:44.436Z,2.83
2022-12-14T15:53:14.972Z,3.80
2022-12-14T15:55:43.135Z,4.93
2022-12-14T15:58:20.381Z,4.97
2022-12-14T16:00:51.651Z,3.57
2022-12-14T16:03:53.260Z,5.83
2022-12-14T16:06:21.597Z,4.33
2022-12-14T16:09:00.385Z,7.33
2022-12-14T16:11:39.005Z,7.33
2022-12-14T16:14:36.039Z,4.80
2022-12-14T16:18:05.051Z,8.80
2022-12-14T16:24:27.337Z,4.47
2022-12-14T16:26:59.155Z,6.60
2022-12-14T16:29:35.336Z,6.83
2022-12-14T16:32:13.430Z,6.53
2022-12-14T16:34:47.821Z,9.07
2022-12-14T16:37:33.928Z,7.63
2022-12-14T16:40:01.219Z,7.53
2022-12-14T16:42:28.985Z,7.40
2022-12-14T16:44:55.953Z,6.93
2022-12-14T16:47:34.970Z,7.27
2022-12-14T16:50:01.919Z,5.10
2022-12-14T16:52:30.594Z,6.63
2022-12-14T16:55:18.348Z,6.50
2022-12-14T16:57:47.969Z,5.43
2022-12-14T17:00:21.002Z,6.53
2022-12-14T17:05:23.103Z,7.93
2022-12-14T17:07:50.468Z,7.70
2022-12-14T17:10:23.304Z,8.53
2022-12-14T17:12:50.644Z,6.38
2022-12-14T17:15:20.784Z,6.93
2022-12-14T17:17:50.993Z,8.02
2022-12-14T17:20:23.866Z,5.60
2022-12-14T17:22:51.481Z,9.73
2022-12-14T17:25:19.174Z,6.95
2022-12-14T17:27:46.313Z,6.53
2022-12-14T17:30:18.111Z,4.35
2022-12-14T17:32:45.247Z,8.00
2022-12-14T17:35:16.980Z,6.22
2022-12-14T17:37:43.943Z,5.47
2022-12-14T17:40:11.274Z,7.00
2022-12-14T17:42:39.813Z,6.28
2022-12-14T17:45:15.933Z,5.00
2022-12-14T17:47:42.962Z,5.53
2022-12-14T17:50:12.951Z,5.25
2022-12-14T17:52:39.736Z,8.25
2022-12-14T17:55:06.759Z,7.68
2022-12-14T17:57:33.413Z,7.28
2022-12-14T18:00:18.805Z,7.70
2022-12-14T18:02:46.033Z,5.68
2022-12-14T18:05:22.270Z,5.38
2022-12-14T18:07:49.565Z,7.03
2022-12-14T18:10:18.436Z,7.80
2022-12-14T18:12:45.259Z,11.88
2022-12-14T18:15:23.393Z,6.80
2022-12-14T18:17:51.745Z,5.43
2022-12-14T18:20:23.473Z,5.95
2022-12-14T18:22:51.084Z,7.45
2022-12-14T18:25:31.898Z,10.77
2022-12-14T18:28:00.061Z,9.13
2022-12-14T18:30:28.532Z,9.40
2022-12-14T18:32:57.423Z,7.88
2022-12-14T18:35:29.617Z,8.32
2022-12-14T18:37:56.596Z,7.97
2022-12-14T18:40:26.833Z,10.68
2022-12-14T18:42:54.362Z,8.48
2022-12-14T18:45:26.831Z,8.23
2022-12-14T18:47:54.490Z,7.47
2022-12-14T18:50:22.707Z,6.68
2022-12-14T18:52:49.725Z,7.35
2022-12-14T18:55:20.307Z,7.50
2022-12-14T18:57:48.784Z,6.38
2022-12-14T19:00:18.309Z,7.03
2022-12-14T19:02:47.030Z,4.35
2022-12-14T19:05:19.667Z,7.10
2022-12-14T19:07:46.465Z,8.35
2022-12-14T19:10:22.220Z,6.57
2022-12-14T19:12:50.354Z,7.57
2022-12-14T19:15:27.554Z,7.03
2022-12-14T19:17:54.690Z,6.18
2022-12-14T19:20:23.226Z,8.32
2022-12-14T19:22:50.505Z,12.77
2022-12-14T19:25:18.251Z,12.25
2022-12-14T19:28:25.766Z,12.32
2022-12-14T19:30:34.840Z,15.00
2022-12-14T19:33:01.484Z,13.88
2022-12-14T19:35:28.137Z,11.13
2022-12-14T19:37:55.382Z,13.10
2022-12-14T19:40:22.047Z,13.70
2022-12-14T19:42:48.769Z,14.35
2022-12-14T19:45:15.848Z,16.38
2022-12-14T19:47:44.121Z,11.13
2022-12-14T19:50:14.536Z,15.43
2022-12-14T19:52:42.089Z,13.93
2022-12-14T19:55:09.579Z,13.55
2022-12-14T19:57:37.883Z,10.90
2022-12-14T20:00:07.338Z,8.18
2022-12-14T20:02:34.167Z,10.88
2022-12-14T20:05:00.958Z,11.50
2022-12-14T20:07:28.016Z,10.52
2022-12-14T20:09:54.623Z,12.05
2022-12-14T20:12:21.323Z,9.80
2022-12-14T20:14:49.292Z,9.85
2022-12-14T20:17:16.255Z,11.55
2022-12-14T20:19:42.901Z,7.22
2022-12-14T20:22:10.593Z,9.23
2022-12-14T20:24:38.320Z,10.27
2022-12-14T20:27:04.929Z,11.00
2022-12-14T20:29:32.669Z,10.43
2022-12-14T20:31:59.412Z,9.27
2022-12-14T20:34:26.693Z,8.52
2022-12-14T20:36:54.441Z,10.13
2022-12-14T20:39:21.120Z,9.80
2022-12-14T20:41:47.876Z,8.57
2022-12-14T20:44:16.320Z,8.38
2022-12-14T20:46:45.715Z,9.95
2022-12-14T20:49:15.038Z,7.45
2022-12-14T20:51:42.968Z,11.82
2022-12-14T20:55:09.394Z,9.30
2022-12-14T20:58:35.950Z,8.13
2022-12-14T21:01:09.403Z,7.32
2022-12-14T21:03:37.595Z,11.05
2022-12-14T21:06:04.423Z,8.55
2022-12-14T21:08:31.799Z,8.73
2022-12-14T21:11:22.424Z,5.32
2022-12-14T21:13:49.138Z,9.43
2022-12-14T21:16:16.008Z,12.00
2022-12-14T21:18:42.821Z,10.90
2022-12-14T21:21:09.404Z,9.07
2022-12-14T21:23:36.082Z,9.77
2022-12-14T21:26:06.228Z,7.82
2022-12-14T21:28:32.891Z,7.78
2022-12-14T21:31:07.430Z,10.18
2022-12-14T21:33:37.820Z,6.75
2022-12-14T21:36:09.133Z,8.55
2022-12-14T21:38:36.833Z,11.48
2022-12-14T21:41:22.931Z,8.75
2022-12-14T21:43:49.919Z,9.13
2022-12-14T21:46:17.051Z,9.82
2022-12-14T21:48:44.787Z,7.45
2022-12-14T21:51:18.465Z,9.85
2022-12-14T21:54:00.171Z,9.07
2022-12-14T21:56:47.240Z,9.75
2022-12-14T21:59:16.125Z,6.70
2022-12-14T22:01:43.255Z,6.70
2022-12-14T22:04:10.197Z,9.63
2022-12-14T22:06:37.522Z,8.23
2022-12-14T22:09:05.041Z,7.40
2022-12-14T22:11:32.058Z,9.13
2022-12-14T22:14:02.689Z,7.90
2022-12-14T22:16:33.935Z,7.85
2022-12-14T22:19:01.572Z,5.93
2022-12-14T22:21:29.046Z,5.85
2022-12-14T22:23:55.938Z,9.13
2022-12-14T22:26:24.273Z,6.10
2022-12-14T22:28:52.425Z,10.55
2022-12-14T22:31:20.532Z,7.07
2022-12-14T22:33:49.689Z,8.02
2022-12-14T22:36:17.252Z,5.88
2022-12-14T22:38:44.940Z,5.80
2022-12-14T22:41:15.968Z,8.25
2022-12-14T22:43:44.278Z,6.38
2022-12-14T22:46:13.254Z,9.88
2022-12-14T22:48:40.335Z,7.38
2022-12-14T22:51:12.364Z,8.35
2022-12-14T22:53:39.149Z,8.55
2022-12-14T22:56:16.450Z,9.15
2022-12-14T22:59:05.201Z,7.13
2022-12-14T23:01:34.222Z,10.45
2022-12-14T23:04:01.256Z,7.18
2022-12-14T23:06:28.696Z,7.47
2022-12-14T23:09:14.181Z,8.90
2022-12-14T23:11:59.544Z,7.07
2022-12-14T23:14:44.859Z,7.22
2022-12-14T23:17:29.866Z,8.07
2022-12-14T23:20:15.406Z,11.43
2022-12-14T23:23:00.531Z,7.70
2022-12-14T23:25:45.944Z,7.50
2022-12-14T23:28:31.381Z,8.35
2022-12-14T23:31:17.679Z,7.78
2022-12-14T23:34:03.432Z,10.00
2022-12-14T23:36:48.854Z,7.22
2022-12-14T23:39:34.379Z,9.50
2022-12-14T23:42:20.044Z,8.18
2022-12-14T23:45:05.150Z,7.72
2022-12-14T23:47:50.675Z,6.82
2022-12-14T23:50:36.401Z,6.78
2022-12-14T23:53:26.251Z,9.23
2022-12-14T23:56:12.487Z,9.55
2022-12-14T23:58:58.179Z,7.90
